WXM80 ListenWXM80 Stop

You find our weather info also at:

UK Metoffice

WeatherCloud

Weather Underground

Northeastern Weather Network

AWEKAS

Citizen Weather Observer Program (CWOP)

HAMweather, WeatherForYou, PWS Weather


Weather Underground History page Text

Daily Summary for March 22, 2016 Units:  English    Metric   Both
« Previous Day
Next Day »
Daily Weekly Monthly Yearly Custom
  High: Low: Average:
Temperature: 54.9 °F 35.1 °F 43.6 °F
Dew Point: 39.6 °F 21.5 °F 28.5 °F
Humidity: 77 % 32 % 56 %
Wind Speed: 12.4 mph 1.0 mph 5.9 mph
Wind Gust: 20.0 mph - -
Wind:- - WSW
Pressure: 30.17 in 29.99 in -
Precipitation: 0.00 in    
Historical Graphs
 
 
Tabular Data for March 22, 2016
Time Temperature Dew Point Pressure Wind Wind Speed Wind Gust Humidity Rainfall Rate (Hourly)
00:00 38.2 °F 24.7 °F 30.00 in NW 5.1 mph 11.5 mph 58 % 0.00 in
00:05 38.1 °F 25.0 °F 30.00 in West 5.0 mph 16.1 mph 59 % 0.00 in
00:10 38.1 °F 25.4 °F 30.00 in WNW 6.8 mph 14.0 mph 60 % 0.00 in
00:15 38.0 °F 25.7 °F 30.00 in WNW 5.8 mph 12.0 mph 61 % 0.00 in
00:20 38.0 °F 25.3 °F 30.00 in WNW 6.3 mph 10.4 mph 60 % 0.00 in
00:26 37.9 °F 25.6 °F 30.00 in SW 7.2 mph 12.7 mph 61 % 0.00 in
00:31 37.8 °F 25.5 °F 30.00 in WSW 5.5 mph 9.2 mph 61 % 0.00 in
00:36 37.7 °F 25.1 °F 30.00 in WSW 6.4 mph 11.5 mph 60 % 0.00 in
00:41 37.6 °F 24.6 °F 30.00 in WNW 9.2 mph 17.3 mph 59 % 0.00 in
00:46 37.6 °F 24.1 °F 30.00 in West 7.9 mph 16.1 mph 58 % 0.00 in
00:51 37.5 °F 24.9 °F 30.00 in WNW 3.5 mph 12.0 mph 60 % 0.00 in
00:56 37.5 °F 24.9 °F 30.01 in West 7.5 mph 18.0 mph 60 % 0.00 in
01:01 37.3 °F 24.3 °F 30.00 in WSW 8.5 mph 19.6 mph 59 % 0.00 in
01:06 37.3 °F 23.9 °F 30.00 in WNW 5.3 mph 13.8 mph 58 % 0.00 in
01:11 37.3 °F 24.3 °F 30.01 in West 8.1 mph 16.0 mph 59 % 0.00 in
01:22 37.2 °F 22.9 °F 30.01 in West 5.6 mph 19.6 mph 56 % 0.00 in
01:27 37.2 °F 22.9 °F 30.01 in West 5.8 mph 12.0 mph 56 % 0.00 in
01:32 37.1 °F 22.8 °F 30.01 in NW 4.3 mph 9.2 mph 56 % 0.00 in
01:37 37.0 °F 23.2 °F 30.01 in WNW 4.5 mph 9.2 mph 57 % 0.00 in
01:42 37.0 °F 22.7 °F 30.01 in NW 7.8 mph 15.0 mph 56 % 0.00 in
01:47 36.9 °F 23.1 °F 30.01 in WNW 5.6 mph 13.0 mph 57 % 0.00 in
01:52 36.9 °F 23.1 °F 30.02 in NW 4.1 mph 10.4 mph 57 % 0.00 in
01:57 36.8 °F 23.0 °F 30.01 in West 5.7 mph 8.1 mph 57 % 0.00 in
02:02 36.8 °F 23.4 °F 30.02 in WSW 5.8 mph 11.5 mph 58 % 0.00 in
02:08 36.7 °F 22.9 °F 30.01 in WNW 5.2 mph 10.4 mph 57 % 0.00 in
02:13 36.7 °F 22.9 °F 30.02 in West 5.6 mph 16.1 mph 57 % 0.00 in
02:18 36.6 °F 22.4 °F 30.02 in WNW 5.4 mph 11.5 mph 56 % 0.00 in
02:23 36.6 °F 21.5 °F 30.02 in NW 3.8 mph 10.4 mph 54 % 0.00 in
02:28 36.6 °F 21.9 °F 30.02 in WNW 4.5 mph 9.2 mph 55 % 0.00 in
02:33 36.6 °F 22.4 °F 30.02 in WNW 5.6 mph 13.0 mph 56 % 0.00 in
02:38 36.5 °F 21.8 °F 30.02 in West 8.0 mph 11.0 mph 55 % 0.00 in
02:43 36.5 °F 21.8 °F 30.02 in WSW 6.6 mph 11.0 mph 55 % 0.00 in
02:48 36.5 °F 21.8 °F 30.02 in NW 5.7 mph 13.8 mph 55 % 0.00 in
02:53 36.4 °F 22.2 °F 30.03 in WSW 6.8 mph 18.0 mph 56 % 0.00 in
02:59 36.3 °F 21.7 °F 30.03 in WSW 4.8 mph 12.7 mph 55 % 0.00 in
03:09 36.2 °F 22.0 °F 30.03 in West 6.4 mph 12.7 mph 56 % 0.00 in
03:14 36.1 °F 21.9 °F 30.03 in SW 3.8 mph 7.0 mph 56 % 0.00 in
03:19 36.2 °F 22.0 °F 30.04 in SW 6.9 mph 15.0 mph 56 % 0.00 in
03:24 36.1 °F 22.3 °F 30.03 in WNW 5.7 mph 10.4 mph 57 % 0.00 in
03:29 36.1 °F 21.9 °F 30.03 in WSW 6.0 mph 11.5 mph 56 % 0.00 in
03:34 36.0 °F 21.8 °F 30.03 in WSW 9.2 mph 17.3 mph 56 % 0.00 in
03:39 36.0 °F 21.8 °F 30.04 in West 4.5 mph 8.1 mph 56 % 0.00 in
03:44 36.0 °F 22.6 °F 30.04 in NW 6.6 mph 11.5 mph 58 % 0.00 in
03:50 35.9 °F 22.1 °F 30.04 in WSW 3.0 mph 10.4 mph 57 % 0.00 in
03:55 35.9 °F 22.5 °F 30.04 in West 4.9 mph 9.2 mph 58 % 0.00 in
04:00 35.8 °F 22.9 °F 30.04 in WNW 4.9 mph 10.4 mph 59 % 0.00 in
04:05 35.7 °F 22.4 °F 30.04 in WSW 7.4 mph 13.8 mph 58 % 0.00 in
04:10 35.7 °F 22.4 °F 30.05 in SW 5.6 mph 11.5 mph 58 % 0.00 in
04:15 35.7 °F 22.4 °F 30.05 in WSW 5.9 mph 10.4 mph 58 % 0.00 in
04:20 35.6 °F 22.3 °F 30.05 in WSW 6.1 mph 10.4 mph 58 % 0.00 in
04:25 35.6 °F 22.3 °F 30.06 in West 5.4 mph 9.0 mph 58 % 0.00 in
04:30 35.6 °F 22.3 °F 30.06 in NW 6.2 mph 11.0 mph 58 % 0.00 in
04:36 35.5 °F 22.6 °F 30.06 in WNW 3.3 mph 16.1 mph 59 % 0.00 in
04:41 35.5 °F 22.6 °F 30.06 in WSW 6.5 mph 11.5 mph 59 % 0.00 in
04:46 35.5 °F 23.0 °F 30.06 in SW 5.4 mph 8.1 mph 60 % 0.00 in
04:51 35.4 °F 22.9 °F 30.07 in WSW 3.7 mph 9.2 mph 60 % 0.00 in
04:56 35.4 °F 22.5 °F 30.07 in West 4.0 mph 9.2 mph 59 % 0.00 in
05:01 35.4 °F 22.9 °F 30.07 in West 4.9 mph 9.2 mph 60 % 0.00 in
05:06 35.4 °F 22.9 °F 30.08 in NW 4.9 mph 13.0 mph 60 % 0.00 in
05:11 35.4 °F 22.5 °F 30.08 in SW 4.5 mph 8.1 mph 59 % 0.00 in
05:16 35.4 °F 22.5 °F 30.09 in SW 5.2 mph 6.9 mph 59 % 0.00 in
05:21 35.4 °F 22.5 °F 30.08 in West 5.7 mph 10.4 mph 59 % 0.00 in
05:27 35.4 °F 22.5 °F 30.09 in West 6.0 mph 15.0 mph 59 % 0.00 in
05:32 35.4 °F 22.9 °F 30.09 in WNW 5.2 mph 11.5 mph 60 % 0.00 in
05:37 35.4 °F 22.9 °F 30.08 in WSW 4.6 mph 9.2 mph 60 % 0.00 in
05:42 35.3 °F 22.8 °F 30.09 in NW 5.0 mph 10.4 mph 60 % 0.00 in
05:47 35.3 °F 22.8 °F 30.08 in West 4.8 mph 8.1 mph 60 % 0.00 in
05:52 35.3 °F 22.8 °F 30.08 in West 4.5 mph 9.0 mph 60 % 0.00 in
05:57 35.3 °F 23.2 °F 30.09 in NW 4.0 mph 9.2 mph 61 % 0.00 in
06:02 35.3 °F 23.6 °F 30.09 in WNW 4.7 mph 5.8 mph 62 % 0.00 in
06:07 35.2 °F 23.5 °F 30.09 in NW 4.2 mph 8.1 mph 62 % 0.00 in
06:12 35.2 °F 23.5 °F 30.09 in West 2.3 mph 5.8 mph 62 % 0.00 in
06:18 35.1 °F 23.4 °F 30.09 in SW 1.0 mph 3.5 mph 62 % 0.00 in
06:23 35.2 °F 23.5 °F 30.10 in WNW 3.2 mph 11.5 mph 62 % 0.00 in
06:28 35.2 °F 23.5 °F 30.10 in WNW 4.9 mph 8.1 mph 62 % 0.00 in
06:33 35.3 °F 24.0 °F 30.10 in WSW 7.1 mph 11.5 mph 63 % 0.00 in
06:38 35.3 °F 23.6 °F 30.10 in WSW 5.4 mph 9.2 mph 62 % 0.00 in
06:43 35.5 °F 23.4 °F 30.10 in WNW 9.1 mph 13.8 mph 61 % 0.00 in
06:48 35.5 °F 23.8 °F 30.11 in WNW 4.3 mph 6.9 mph 62 % 0.00 in
06:53 35.5 °F 24.1 °F 30.11 in West 4.1 mph 8.1 mph 63 % 0.00 in
06:58 35.4 °F 24.0 °F 30.11 in West 4.5 mph 8.1 mph 63 % 0.00 in
07:03 35.4 °F 24.0 °F 30.11 in SW 5.5 mph 10.4 mph 63 % 0.00 in
07:09 35.4 °F 24.0 °F 30.11 in West 5.3 mph 11.5 mph 63 % 0.00 in
07:14 35.4 °F 24.0 °F 30.11 in WSW 5.7 mph 9.2 mph 63 % 0.00 in
07:19 35.5 °F 23.8 °F 30.12 in West 5.6 mph 10.4 mph 62 % 0.00 in
07:24 35.6 °F 23.9 °F 30.12 in West 6.7 mph 12.0 mph 62 % 0.00 in
07:29 35.8 °F 23.7 °F 30.12 in West 6.9 mph 11.5 mph 61 % 0.00 in
07:34 36.0 °F 23.8 °F 30.12 in NW 5.8 mph 11.5 mph 61 % 0.00 in
07:39 36.2 °F 24.0 °F 30.13 in West 4.4 mph 9.2 mph 61 % 0.00 in
07:44 36.5 °F 23.9 °F 30.13 in SSW 4.8 mph 8.1 mph 60 % 0.00 in
07:49 36.7 °F 24.1 °F 30.14 in WNW 5.3 mph 8.1 mph 60 % 0.00 in
07:54 37.0 °F 24.0 °F 30.13 in WSW 5.1 mph 11.5 mph 59 % 0.00 in
08:00 37.2 °F 24.2 °F 30.13 in SW 2.9 mph 12.7 mph 59 % 0.00 in
08:05 37.4 °F 24.4 °F 30.13 in WNW 6.2 mph 11.5 mph 59 % 0.00 in
08:10 37.5 °F 24.5 °F 30.14 in WNW 7.0 mph 12.7 mph 59 % 0.00 in
08:15 37.7 °F 24.6 °F 30.14 in WSW 5.6 mph 11.5 mph 59 % 0.00 in
08:20 37.9 °F 24.8 °F 30.14 in WSW 6.0 mph 10.0 mph 59 % 0.00 in
08:25 38.2 °F 24.7 °F 30.15 in WSW 5.6 mph 8.1 mph 58 % 0.00 in
08:30 38.4 °F 24.9 °F 30.15 in NNW 5.5 mph 8.1 mph 58 % 0.00 in
08:35 38.8 °F 24.9 °F 30.15 in WNW 3.7 mph 12.0 mph 57 % 0.00 in
08:40 39.1 °F 25.1 °F 30.15 in WNW 2.3 mph 6.9 mph 57 % 0.00 in
08:45 39.3 °F 24.9 °F 30.15 in WSW 4.0 mph 9.2 mph 56 % 0.00 in
08:56 39.8 °F 24.9 °F 30.15 in West 5.4 mph 11.5 mph 55 % 0.00 in
09:01 40.0 °F 24.7 °F 30.16 in West 3.6 mph 7.0 mph 54 % 0.00 in
09:06 40.2 °F 24.9 °F 30.16 in West 7.0 mph 11.5 mph 54 % 0.00 in
09:11 40.3 °F 24.5 °F 30.16 in WSW 4.3 mph 9.2 mph 53 % 0.00 in
09:16 40.4 °F 24.1 °F 30.16 in WSW 6.4 mph 11.5 mph 52 % 0.00 in
09:21 40.6 °F 24.8 °F 30.16 in NW 4.9 mph 9.2 mph 53 % 0.00 in
09:26 40.7 °F 24.9 °F 30.16 in West 2.5 mph 10.4 mph 53 % 0.00 in
09:31 40.9 °F 24.6 °F 30.16 in West 7.0 mph 8.1 mph 52 % 0.00 in
09:36 41.1 °F 24.8 °F 30.16 in West 5.1 mph 9.2 mph 52 % 0.00 in
09:42 41.4 °F 25.5 °F 30.16 in WSW 3.9 mph 9.2 mph 53 % 0.00 in
09:52 42.2 °F 25.3 °F 30.17 in West 4.0 mph 11.5 mph 51 % 0.00 in
09:57 42.4 °F 26.0 °F 30.17 in West 6.7 mph 10.4 mph 52 % 0.00 in
10:02 42.4 °F 26.0 °F 30.17 in WNW 4.7 mph 11.5 mph 52 % 0.00 in
10:07 42.5 °F 25.6 °F 30.17 in WNW 4.6 mph 11.5 mph 51 % 0.00 in
10:12 42.6 °F 25.2 °F 30.17 in West 8.5 mph 13.8 mph 50 % 0.00 in
10:22 42.8 °F 26.4 °F 30.17 in WSW 6.2 mph 9.2 mph 52 % 0.00 in
10:27 43.1 °F 25.7 °F 30.17 in NW 5.6 mph 12.7 mph 50 % 0.00 in
10:33 43.6 °F 27.1 °F 30.16 in SW 6.3 mph 8.1 mph 52 % 0.00 in
10:38 44.0 °F 26.5 °F 30.17 in West 6.3 mph 12.0 mph 50 % 0.00 in
10:43 44.2 °F 26.2 °F 30.17 in SW 2.6 mph 4.6 mph 49 % 0.00 in
10:48 44.5 °F 26.0 °F 30.16 in WNW 6.1 mph 9.2 mph 48 % 0.00 in
10:53 44.7 °F 26.2 °F 30.16 in WNW 8.3 mph 12.7 mph 48 % 0.00 in
10:58 45.0 °F 26.0 °F 30.17 in West 5.8 mph 11.5 mph 47 % 0.00 in
11:03 45.2 °F 26.1 °F 30.17 in WNW 5.1 mph 8.1 mph 47 % 0.00 in
11:08 45.4 °F 25.3 °F 30.16 in WSW 7.0 mph 12.7 mph 45 % 0.00 in
11:13 45.7 °F 25.5 °F 30.16 in SW 5.2 mph 11.5 mph 45 % 0.00 in
11:18 46.0 °F 25.3 °F 30.16 in WSW 4.9 mph 12.7 mph 44 % 0.00 in
11:24 46.3 °F 25.6 °F 30.16 in WNW 6.6 mph 13.8 mph 44 % 0.00 in
11:29 46.9 °F 26.1 °F 30.16 in WSW 6.1 mph 12.0 mph 44 % 0.00 in
11:34 46.8 °F 25.5 °F 30.16 in SW 6.4 mph 13.8 mph 43 % 0.00 in
11:39 46.7 °F 26.5 °F 30.16 in WSW 8.5 mph 12.0 mph 45 % 0.00 in
11:44 47.0 °F 25.6 °F 30.16 in WSW 7.9 mph 12.7 mph 43 % 0.00 in
11:54 47.3 °F 27.0 °F 30.15 in SW 9.5 mph 17.0 mph 45 % 0.00 in
11:59 47.5 °F 26.1 °F 30.15 in WSW 6.4 mph 10.4 mph 43 % 0.00 in
12:04 47.8 °F 26.4 °F 30.14 in WSW 4.4 mph 9.2 mph 43 % 0.00 in
12:09 48.1 °F 26.1 °F 30.14 in NW 6.6 mph 12.7 mph 42 % 0.00 in
12:15 48.5 °F 25.8 °F 30.14 in WNW 7.4 mph 9.2 mph 41 % 0.00 in
12:20 48.8 °F 26.1 °F 30.13 in SW 2.1 mph 6.9 mph 41 % 0.00 in
12:25 49.1 °F 26.4 °F 30.13 in WSW 7.7 mph 12.7 mph 41 % 0.00 in
12:30 49.3 °F 27.2 °F 30.13 in WSW 5.0 mph 9.2 mph 42 % 0.00 in
12:35 49.5 °F 26.7 °F 30.13 in SW 4.2 mph 9.2 mph 41 % 0.00 in
12:40 49.7 °F 26.3 °F 30.13 in NW 8.0 mph 11.5 mph 40 % 0.00 in
12:45 49.9 °F 25.9 °F 30.12 in SW 9.1 mph 13.8 mph 39 % 0.00 in
12:50 49.9 °F 25.3 °F 30.12 in West 6.1 mph 10.4 mph 38 % 0.00 in
12:55 50.0 °F 26.6 °F 30.12 in SW 8.9 mph 11.5 mph 40 % 0.00 in
13:00 50.2 °F 25.5 °F 30.12 in West 9.6 mph 12.7 mph 38 % 0.00 in
13:06 50.2 °F 25.5 °F 30.12 in WSW 7.8 mph 16.1 mph 38 % 0.00 in
13:11 50.3 °F 26.9 °F 30.12 in West 7.9 mph 12.7 mph 40 % 0.00 in
13:16 50.6 °F 25.9 °F 30.11 in SSW 7.2 mph 11.5 mph 38 % 0.00 in
13:22 50.7 °F 26.0 °F 30.11 in WSW 7.0 mph 17.3 mph 38 % 0.00 in
13:27 51.1 °F 26.3 °F 30.10 in WSW 7.2 mph 12.0 mph 38 % 0.00 in
13:32 51.2 °F 27.1 °F 30.10 in SW 6.3 mph 9.2 mph 39 % 0.00 in
13:37 51.5 °F 26.7 °F 30.10 in WSW 7.4 mph 15.0 mph 38 % 0.00 in
13:42 51.7 °F 24.9 °F 30.10 in West 6.6 mph 13.8 mph 35 % 0.00 in
13:47 51.8 °F 27.0 °F 30.10 in WSW 4.9 mph 8.1 mph 38 % 0.00 in
13:58 52.5 °F 25.6 °F 30.09 in West 3.7 mph 11.5 mph 35 % 0.00 in
14:03 52.8 °F 26.6 °F 30.09 in WSW 6.1 mph 12.7 mph 36 % 0.00 in
14:08 52.9 °F 26.6 °F 30.09 in WNW 4.0 mph 6.9 mph 36 % 0.00 in
14:13 53.2 °F 25.5 °F 30.08 in West 4.5 mph 11.5 mph 34 % 0.00 in
14:18 53.2 °F 25.5 °F 30.08 in West 6.1 mph 12.0 mph 34 % 0.00 in
14:23 53.5 °F 28.5 °F 30.07 in WSW 3.5 mph 6.9 mph 38 % 0.00 in
14:28 53.7 °F 26.0 °F 30.07 in SSW 5.9 mph 11.5 mph 34 % 0.00 in
14:33 53.7 °F 25.2 °F 30.07 in WSW 7.3 mph 13.8 mph 33 % 0.00 in
14:38 53.6 °F 25.2 °F 30.06 in WSW 11.0 mph 16.0 mph 33 % 0.00 in
14:44 53.5 °F 25.1 °F 30.06 in West 9.3 mph 15.0 mph 33 % 0.00 in
14:49 53.5 °F 25.1 °F 30.06 in West 7.5 mph 13.8 mph 33 % 0.00 in
14:54 53.6 °F 26.6 °F 30.06 in WSW 9.5 mph 12.0 mph 35 % 0.00 in
14:59 53.7 °F 26.7 °F 30.05 in WSW 8.9 mph 17.3 mph 35 % 0.00 in
15:04 53.7 °F 26.0 °F 30.05 in WSW 8.1 mph 11.5 mph 34 % 0.00 in
15:09 53.9 °F 26.1 °F 30.05 in West 7.6 mph 12.7 mph 34 % 0.00 in
15:14 54.0 °F 26.2 °F 30.05 in WSW 7.9 mph 11.5 mph 34 % 0.00 in
15:19 54.1 °F 26.3 °F 30.05 in WSW 6.3 mph 13.0 mph 34 % 0.00 in
15:24 54.2 °F 25.7 °F 30.05 in WSW 6.2 mph 10.4 mph 33 % 0.00 in
15:29 54.4 °F 25.1 °F 30.05 in WSW 8.1 mph 10.4 mph 32 % 0.00 in
15:35 54.6 °F 27.5 °F 30.05 in SSW 3.2 mph 8.1 mph 35 % 0.00 in
15:40 54.8 °F 29.7 °F 30.05 in SW 5.0 mph 7.0 mph 38 % 0.00 in
15:45 54.9 °F 29.7 °F 30.05 in SSE 8.5 mph 20.0 mph 38 % 0.00 in
15:50 54.0 °F 28.9 °F 30.05 in South 8.7 mph 13.0 mph 38 % 0.00 in
15:55 53.2 °F 28.9 °F 30.05 in South 7.2 mph 16.0 mph 39 % 0.00 in
16:00 52.4 °F 30.0 °F 30.05 in SW 10.5 mph 17.3 mph 42 % 0.00 in
16:05 52.0 °F 30.2 °F 30.05 in SW 6.0 mph 8.1 mph 43 % 0.00 in
16:10 51.7 °F 29.9 °F 30.04 in WSW 5.4 mph 10.4 mph 43 % 0.00 in
16:15 51.4 °F 30.2 °F 30.05 in SSW 9.0 mph 12.0 mph 44 % 0.00 in
16:20 51.2 °F 30.0 °F 30.04 in SSW 6.4 mph 11.5 mph 44 % 0.00 in
16:26 51.0 °F 29.8 °F 30.04 in South 7.6 mph 12.7 mph 44 % 0.00 in
16:31 50.8 °F 30.2 °F 30.05 in South 7.9 mph 12.7 mph 45 % 0.00 in
16:36 50.4 °F 30.4 °F 30.04 in SSW 6.6 mph 11.5 mph 46 % 0.00 in
16:41 50.0 °F 30.5 °F 30.04 in South 5.7 mph 11.5 mph 47 % 0.00 in
16:46 49.9 °F 31.0 °F 30.04 in SW 8.3 mph 13.0 mph 48 % 0.00 in
16:51 49.8 °F 31.9 °F 30.03 in SSW 8.3 mph 18.4 mph 50 % 0.00 in
16:56 49.8 °F 32.4 °F 30.03 in SSW 6.1 mph 11.5 mph 51 % 0.00 in
17:01 49.6 °F 32.7 °F 30.03 in SSW 6.6 mph 11.5 mph 52 % 0.00 in
17:06 49.6 °F 33.2 °F 30.03 in SW 5.5 mph 11.5 mph 53 % 0.00 in
17:11 49.6 °F 33.6 °F 30.03 in SSW 5.1 mph 10.4 mph 54 % 0.00 in
17:17 49.5 °F 33.5 °F 30.03 in South 9.8 mph 11.5 mph 54 % 0.00 in
17:22 49.2 °F 33.7 °F 30.03 in South 7.9 mph 12.0 mph 55 % 0.00 in
17:27 49.1 °F 34.1 °F 30.03 in South 9.5 mph 18.4 mph 56 % 0.00 in
17:32 48.9 °F 34.8 °F 30.03 in South 6.4 mph 12.7 mph 58 % 0.00 in
17:37 48.8 °F 34.2 °F 30.03 in SW 5.9 mph 15.0 mph 57 % 0.00 in
17:42 48.7 °F 34.6 °F 30.03 in SSW 5.5 mph 9.2 mph 58 % 0.00 in
17:47 48.6 °F 34.9 °F 30.03 in SW 7.2 mph 11.5 mph 59 % 0.00 in
17:52 48.4 °F 34.7 °F 30.02 in South 6.2 mph 9.0 mph 59 % 0.00 in
17:57 48.3 °F 35.0 °F 30.03 in South 8.5 mph 15.0 mph 60 % 0.00 in
18:02 48.1 °F 34.9 °F 30.03 in SSW 5.8 mph 8.1 mph 60 % 0.00 in
18:08 47.9 °F 35.1 °F 30.02 in South 4.5 mph 9.2 mph 61 % 0.00 in
18:13 47.8 °F 35.0 °F 30.02 in SSW 2.9 mph 8.1 mph 61 % 0.00 in
18:18 47.6 °F 35.2 °F 30.03 in SSW 6.2 mph 11.5 mph 62 % 0.00 in
18:23 47.4 °F 35.0 °F 30.02 in SSW 5.8 mph 11.5 mph 62 % 0.00 in
18:28 47.3 °F 35.3 °F 30.02 in SSW 4.7 mph 9.0 mph 63 % 0.00 in
18:33 47.2 °F 35.2 °F 30.02 in SSW 5.5 mph 12.0 mph 63 % 0.00 in
18:38 47.0 °F 35.4 °F 30.02 in South 3.9 mph 8.1 mph 64 % 0.00 in
18:43 46.9 °F 35.7 °F 30.02 in South 4.4 mph 10.0 mph 65 % 0.00 in
18:48 46.7 °F 35.9 °F 30.01 in South 3.0 mph 5.8 mph 66 % 0.00 in
18:53 46.6 °F 35.8 °F 30.01 in South 7.5 mph 12.7 mph 66 % 0.00 in
18:59 46.5 °F 36.1 °F 30.02 in South 4.9 mph 11.5 mph 67 % 0.00 in
19:04 46.4 °F 36.4 °F 30.01 in SSW 5.2 mph 9.2 mph 68 % 0.00 in
19:09 46.3 °F 36.3 °F 30.01 in SSE 7.2 mph 11.5 mph 68 % 0.00 in
19:14 46.2 °F 36.6 °F 30.02 in South 5.1 mph 6.9 mph 69 % 0.00 in
19:19 46.0 °F 36.4 °F 30.01 in SSW 6.6 mph 11.5 mph 69 % 0.00 in
19:24 45.9 °F 36.7 °F 30.01 in South 4.0 mph 6.9 mph 70 % 0.00 in
19:29 45.9 °F 36.7 °F 30.01 in SSW 5.0 mph 9.2 mph 70 % 0.00 in
19:34 45.8 °F 36.9 °F 30.01 in South 2.4 mph 11.5 mph 71 % 0.00 in
19:39 45.7 °F 36.8 °F 30.01 in SSW 4.6 mph 11.5 mph 71 % 0.00 in
19:44 45.7 °F 37.2 °F 30.02 in SSW 4.3 mph 9.2 mph 72 % 0.00 in
19:50 45.7 °F 37.2 °F 30.01 in WSW 5.3 mph 11.5 mph 72 % 0.00 in
19:55 45.7 °F 37.2 °F 30.02 in South 4.7 mph 6.9 mph 72 % 0.00 in
20:00 45.7 °F 37.5 °F 30.02 in SSW 7.2 mph 15.0 mph 73 % 0.00 in
20:05 45.7 °F 37.5 °F 30.01 in SW 5.5 mph 12.7 mph 73 % 0.00 in
20:10 45.7 °F 37.5 °F 30.01 in SSW 6.4 mph 11.5 mph 73 % 0.00 in
20:15 45.7 °F 37.5 °F 30.02 in South 4.5 mph 6.0 mph 73 % 0.00 in
20:20 45.7 °F 37.9 °F 30.02 in South 4.9 mph 10.4 mph 74 % 0.00 in
20:25 45.7 °F 37.9 °F 30.02 in SW 6.4 mph 13.8 mph 74 % 0.00 in
20:30 45.8 °F 38.3 °F 30.02 in SSW 4.7 mph 7.0 mph 75 % 0.00 in
20:35 45.8 °F 38.3 °F 30.02 in South 4.0 mph 8.1 mph 75 % 0.00 in
20:41 45.8 °F 38.3 °F 30.02 in South 4.0 mph 5.0 mph 75 % 0.00 in
20:46 45.7 °F 38.2 °F 30.02 in SSW 4.4 mph 10.4 mph 75 % 0.00 in
20:51 45.7 °F 38.6 °F 30.02 in SW 4.7 mph 9.2 mph 76 % 0.00 in
20:56 45.7 °F 38.6 °F 30.02 in SW 3.1 mph 11.5 mph 76 % 0.00 in
21:01 45.7 °F 38.6 °F 30.02 in SSE 5.1 mph 9.0 mph 76 % 0.00 in
21:06 45.7 °F 38.6 °F 30.01 in SSW 5.6 mph 10.4 mph 76 % 0.00 in
21:11 45.8 °F 38.7 °F 30.02 in SSW 4.5 mph 8.1 mph 76 % 0.00 in
21:21 46.0 °F 39.2 °F 30.01 in South 6.4 mph 12.7 mph 77 % 0.00 in
21:26 46.1 °F 39.3 °F 30.02 in SSW 6.4 mph 10.0 mph 77 % 0.00 in
21:32 46.2 °F 39.1 °F 30.01 in SW 6.5 mph 11.5 mph 76 % 0.00 in
21:37 46.3 °F 39.1 °F 30.01 in South 5.6 mph 9.2 mph 76 % 0.00 in
21:42 46.4 °F 39.2 °F 30.01 in SW 4.6 mph 8.0 mph 76 % 0.00 in
21:47 46.6 °F 39.1 °F 30.00 in SSW 3.8 mph 9.2 mph 75 % 0.00 in
21:52 46.7 °F 39.2 °F 30.00 in SSW 5.8 mph 9.2 mph 75 % 0.00 in
21:57 46.9 °F 39.4 °F 30.00 in SSE 6.7 mph 11.5 mph 75 % 0.00 in
22:02 47.0 °F 39.1 °F 30.00 in SSW 6.8 mph 10.4 mph 74 % 0.00 in
22:07 47.2 °F 39.3 °F 30.00 in SSW 7.4 mph 10.4 mph 74 % 0.00 in
22:12 47.3 °F 39.4 °F 30.00 in SSW 3.7 mph 6.9 mph 74 % 0.00 in
22:17 47.3 °F 39.4 °F 30.00 in SSW 4.4 mph 12.7 mph 74 % 0.00 in
22:23 47.4 °F 39.5 °F 30.00 in South 6.6 mph 11.5 mph 74 % 0.00 in
22:28 47.4 °F 39.5 °F 30.00 in South 4.3 mph 12.7 mph 74 % 0.00 in
22:33 47.5 °F 39.6 °F 30.00 in SW 4.1 mph 9.2 mph 74 % 0.00 in
22:43 47.6 °F 39.4 °F 30.00 in SW 8.6 mph 14.0 mph 73 % 0.00 in
22:48 47.7 °F 39.1 °F 30.01 in SW 8.0 mph 12.0 mph 72 % 0.00 in
22:53 47.8 °F 39.2 °F 30.00 in SSW 4.8 mph 10.4 mph 72 % 0.00 in
22:58 47.8 °F 38.8 °F 30.00 in SSW 5.3 mph 11.5 mph 71 % 0.00 in
23:03 47.9 °F 38.9 °F 30.00 in SSW 4.7 mph 10.4 mph 71 % 0.00 in
23:08 47.9 °F 38.6 °F 30.00 in WSW 8.7 mph 13.8 mph 70 % 0.00 in
23:14 48.0 °F 38.7 °F 29.99 in SSW 7.4 mph 7.4 mph 70 % 0.00 in
23:19 48.1 °F 38.4 °F 30.00 in South 6.4 mph 11.5 mph 69 % 0.00 in
23:24 48.1 °F 38.4 °F 30.00 in SSW 12.4 mph 18.4 mph 69 % 0.00 in
23:29 48.2 °F 37.8 °F 30.00 in SW 5.1 mph 10.4 mph 67 % 0.00 in
23:34 48.3 °F 37.5 °F 30.00 in SSE 7.1 mph 11.5 mph 66 % 0.00 in
23:39 48.4 °F 37.2 °F 30.00 in SSE 8.1 mph 15.0 mph 65 % 0.00 in
23:44 48.6 °F 36.6 °F 29.99 in South 11.2 mph 19.6 mph 63 % 0.00 in
23:49 48.6 °F 36.2 °F 29.99 in South 7.9 mph 10.4 mph 62 % 0.00 in
23:54 48.6 °F 35.7 °F 29.99 in South 6.2 mph 13.8 mph 61 % 0.00 in
Crab Meadow Weather
Compliments of Weather Underground - 3 mb

Script developed by  Jim McMurry - jmcmurry@mwt.net Adapted for the template by  Wim van der Kuil - Leuven-Template.eu

Weather Terms: Tornado - A violently rotating column of air, from a thunderstorm, in contact with the ground.